createdAt,value
2018-07-30T00:02:05.956Z,96630.00
2018-07-30T00:04:33.951Z,96637.00
2018-07-30T00:07:01.949Z,96633.00
2018-07-30T00:09:29.914Z,96629.00
2018-07-30T00:11:57.881Z,96631.00
2018-07-30T00:14:25.844Z,96631.00
2018-07-30T00:16:53.825Z,96635.00
2018-07-30T00:19:21.735Z,96640.00
2018-07-30T00:21:49.747Z,96639.00
2018-07-30T00:24:17.716Z,96642.00
2018-07-30T00:26:45.722Z,96643.00
2018-07-30T00:29:13.712Z,96633.00
2018-07-30T00:31:41.839Z,96634.00
2018-07-30T00:34:09.832Z,96629.00
2018-07-30T00:36:37.805Z,96635.00
2018-07-30T00:39:11.546Z,96630.00
2018-07-30T00:41:39.860Z,96626.00
2018-07-30T00:44:08.208Z,96627.00
2018-07-30T00:46:37.035Z,96631.00
2018-07-30T00:49:05.796Z,96638.00
2018-07-30T00:51:33.729Z,96640.00
2018-07-30T00:54:01.724Z,96628.00
2018-07-30T00:56:29.675Z,96634.00
2018-07-30T00:58:57.708Z,96633.00
2018-07-30T01:01:25.642Z,96629.00
2018-07-30T01:03:53.961Z,96628.00
2018-07-30T01:06:21.960Z,96621.00
2018-07-30T01:08:49.971Z,96632.00
2018-07-30T01:11:17.935Z,96638.00
2018-07-30T01:13:45.881Z,96634.00
2018-07-30T01:16:13.855Z,96643.00
2018-07-30T01:18:41.845Z,96638.00
2018-07-30T01:21:09.807Z,96640.00
2018-07-30T01:23:37.840Z,96633.00
2018-07-30T01:26:23.848Z,96635.00
2018-07-30T01:28:52.403Z,96639.00
2018-07-30T01:31:20.558Z,96647.00
2018-07-30T01:33:48.595Z,96642.00
2018-07-30T01:36:16.565Z,96651.00
2018-07-30T01:38:44.515Z,96646.00
2018-07-30T01:41:12.482Z,96648.00
2018-07-30T01:43:40.436Z,96661.00
2018-07-30T01:46:08.479Z,96651.00
2018-07-30T01:48:36.427Z,96657.00
2018-07-30T01:51:04.431Z,96655.00
2018-07-30T01:53:32.483Z,96662.00
2018-07-30T01:56:00.665Z,96659.00
2018-07-30T01:58:28.647Z,96664.00
2018-07-30T02:00:56.622Z,96660.00
2018-07-30T02:03:24.706Z,96660.00
2018-07-30T02:05:52.652Z,96666.00
2018-07-30T02:08:20.590Z,96665.00
2018-07-30T02:10:48.590Z,96669.00
2018-07-30T02:13:16.565Z,96661.00
2018-07-30T02:15:44.553Z,96661.00
2018-07-30T02:18:12.585Z,96657.00
2018-07-30T02:20:40.680Z,96654.00
2018-07-30T02:23:08.708Z,96664.00
2018-07-30T02:25:36.736Z,96667.00
2018-07-30T02:28:04.733Z,96667.00
2018-07-30T02:30:32.696Z,96670.00
2018-07-30T02:33:00.675Z,96674.00
2018-07-30T02:35:28.661Z,96669.00
2018-07-30T02:37:56.647Z,96677.00
2018-07-30T02:40:24.613Z,96673.00
2018-07-30T02:42:52.626Z,96679.00
2018-07-30T02:45:20.560Z,96677.00
2018-07-30T02:47:48.554Z,96676.00
2018-07-30T02:50:16.633Z,96668.00
2018-07-30T02:52:44.652Z,96672.00
2018-07-30T02:55:12.658Z,96673.00
2018-07-30T02:57:40.673Z,96679.00
2018-07-30T03:00:08.727Z,96668.00
2018-07-30T03:02:36.882Z,96677.00
2018-07-30T03:05:05.466Z,96674.00
2018-07-30T03:07:33.495Z,96668.00
2018-07-30T03:10:01.462Z,96674.00
2018-07-30T03:12:29.505Z,96673.00
2018-07-30T03:14:57.465Z,96672.00
2018-07-30T03:17:25.429Z,96671.00
2018-07-30T03:19:53.425Z,96673.00
2018-07-30T03:22:21.394Z,96676.00
2018-07-30T03:24:49.488Z,96671.00
2018-07-30T03:27:17.458Z,96673.00
2018-07-30T03:29:45.413Z,96680.00
2018-07-30T03:32:13.481Z,96684.00
2018-07-30T03:34:41.441Z,96687.00
2018-07-30T03:37:09.476Z,96688.00
2018-07-30T03:39:37.441Z,96684.00
2018-07-30T03:42:05.910Z,96688.00
2018-07-30T03:44:33.964Z,96696.00
2018-07-30T03:47:01.932Z,96699.00
2018-07-30T03:49:29.942Z,96691.00
2018-07-30T03:51:57.918Z,96693.00
2018-07-30T03:54:25.888Z,96701.00
2018-07-30T03:56:53.905Z,96701.00
2018-07-30T03:59:21.828Z,96705.00
2018-07-30T04:01:49.885Z,96711.00
2018-07-30T04:04:17.906Z,96711.00
2018-07-30T04:06:45.866Z,96703.00
2018-07-30T04:09:13.861Z,96708.00
2018-07-30T04:11:41.867Z,96708.00
2018-07-30T04:14:09.865Z,96710.00
2018-07-30T04:16:48.076Z,96712.00
2018-07-30T04:19:16.094Z,96714.00
2018-07-30T04:21:44.053Z,96712.00
2018-07-30T04:24:12.038Z,96724.00
2018-07-30T04:26:40.036Z,96725.00
2018-07-30T04:29:08.037Z,96721.00
2018-07-30T04:31:35.994Z,96725.00
2018-07-30T04:34:04.079Z,96723.00
2018-07-30T04:36:32.036Z,96730.00
2018-07-30T04:39:00.018Z,96728.00
2018-07-30T04:41:28.003Z,96720.00
2018-07-30T04:43:55.987Z,96726.00
2018-07-30T04:46:23.994Z,96732.00
2018-07-30T04:48:52.490Z,96729.00
2018-07-30T04:51:20.507Z,96723.00
2018-07-30T04:53:48.550Z,96725.00
2018-07-30T04:56:16.538Z,96733.00
2018-07-30T04:58:44.469Z,96727.00
2018-07-30T05:01:12.456Z,96735.00
2018-07-30T05:03:40.502Z,96735.00
2018-07-30T05:06:08.504Z,96731.00
2018-07-30T05:08:36.458Z,96734.00
2018-07-30T05:11:04.454Z,96740.00
2018-07-30T05:13:32.414Z,96747.00
2018-07-30T05:16:00.387Z,96731.00
2018-07-30T05:18:28.393Z,96749.00
2018-07-30T05:20:56.365Z,96741.00
2018-07-30T05:23:24.363Z,96749.00
2018-07-30T05:25:52.301Z,96750.00
2018-07-30T05:28:20.286Z,96752.00
2018-07-30T05:30:48.244Z,96753.00
2018-07-30T05:33:16.191Z,96751.00
2018-07-30T05:35:44.201Z,96749.00
2018-07-30T05:38:12.138Z,96748.00
2018-07-30T05:40:59.739Z,96751.00
2018-07-30T05:43:27.718Z,96753.00
2018-07-30T05:45:55.728Z,96753.00
2018-07-30T05:48:23.773Z,96756.00
2018-07-30T05:50:51.919Z,96754.00
2018-07-30T05:53:19.930Z,96755.00
2018-07-30T05:55:47.887Z,96758.00
2018-07-30T05:58:15.869Z,96752.00
2018-07-30T06:00:43.818Z,96748.00
2018-07-30T06:03:11.848Z,96750.00
2018-07-30T06:05:39.843Z,96747.00
2018-07-30T06:08:07.896Z,96743.00
2018-07-30T06:10:35.950Z,96752.00
2018-07-30T06:13:03.967Z,96747.00
2018-07-30T06:15:32.283Z,96748.00
2018-07-30T06:18:00.253Z,96745.00
2018-07-30T06:20:28.244Z,96749.00
2018-07-30T06:22:56.193Z,96747.00
2018-07-30T06:25:24.191Z,96751.00
2018-07-30T06:27:52.151Z,96752.00
2018-07-30T06:30:20.096Z,96761.00
2018-07-30T06:32:48.144Z,96762.00
2018-07-30T06:35:16.125Z,96764.00
2018-07-30T06:37:44.122Z,96766.00
2018-07-30T06:40:12.096Z,96766.00
2018-07-30T06:42:40.129Z,96775.00
2018-07-30T06:45:08.050Z,96763.00
2018-07-30T06:47:36.016Z,96776.00
2018-07-30T06:50:04.247Z,96776.00
2018-07-30T06:52:32.225Z,96773.00
2018-07-30T06:55:00.198Z,96767.00
2018-07-30T06:57:28.145Z,96769.00
2018-07-30T06:59:56.179Z,96772.00
2018-07-30T07:02:24.137Z,96782.00
2018-07-30T07:04:52.165Z,96788.00
2018-07-30T07:07:20.099Z,96781.00
2018-07-30T07:09:48.079Z,96781.00
2018-07-30T07:12:16.042Z,96779.00
2018-07-30T07:14:43.993Z,96778.00
2018-07-30T07:17:11.992Z,96782.00
2018-07-30T07:19:39.913Z,96779.00
2018-07-30T07:22:08.048Z,96779.00
2018-07-30T07:24:35.867Z,96784.00
2018-07-30T07:27:03.900Z,96779.00
2018-07-30T07:29:31.810Z,96781.00
2018-07-30T07:31:59.726Z,96791.00
2018-07-30T07:34:27.709Z,96779.00
2018-07-30T07:36:55.672Z,96783.00
2018-07-30T07:39:23.650Z,96772.00
2018-07-30T07:41:51.593Z,96786.00
2018-07-30T07:44:19.533Z,96782.00
2018-07-30T07:46:47.508Z,96785.00
2018-07-30T07:49:15.461Z,96784.00
2018-07-30T07:51:43.424Z,96778.00
2018-07-30T07:54:11.392Z,96775.00
2018-07-30T07:56:39.339Z,96776.00
2018-07-30T07:59:07.302Z,96774.00
2018-07-30T08:01:35.285Z,96777.00
2018-07-30T08:04:03.281Z,96774.00
2018-07-30T08:06:31.232Z,96770.00
2018-07-30T08:08:59.181Z,96779.00
2018-07-30T08:11:27.106Z,96782.00
2018-07-30T08:13:55.093Z,96778.00
2018-07-30T08:16:23.160Z,96778.00
2018-07-30T08:18:51.194Z,96773.00
2018-07-30T08:21:19.163Z,96778.00
2018-07-30T08:23:47.084Z,96777.00
2018-07-30T08:26:15.068Z,96781.00
2018-07-30T08:28:42.984Z,96772.00
2018-07-30T08:31:10.903Z,96775.00
2018-07-30T08:33:38.909Z,96781.00
2018-07-30T08:36:06.828Z,96784.00
2018-07-30T08:38:34.805Z,96781.00
2018-07-30T08:41:02.745Z,96775.00
2018-07-30T08:43:30.714Z,96778.00
2018-07-30T08:45:58.647Z,96778.00
2018-07-30T08:48:26.646Z,96775.00
2018-07-30T08:50:54.619Z,96777.00
2018-07-30T08:53:22.572Z,96765.00
2018-07-30T08:55:50.579Z,96773.00
2018-07-30T08:58:18.528Z,96775.00
2018-07-30T09:00:46.472Z,96781.00
2018-07-30T09:03:14.391Z,96774.00
2018-07-30T09:05:42.323Z,96770.00
2018-07-30T09:08:10.321Z,96773.00
2018-07-30T09:10:38.244Z,96769.00
2018-07-30T09:13:06.572Z,96771.00
2018-07-30T09:15:34.621Z,96767.00
2018-07-30T09:18:02.626Z,96763.00
2018-07-30T09:20:30.538Z,96761.00
2018-07-30T09:22:58.465Z,96768.00
2018-07-30T09:25:26.443Z,96776.00
2018-07-30T09:27:54.648Z,96763.00
2018-07-30T09:30:22.645Z,96764.00
2018-07-30T09:32:50.706Z,96761.00
2018-07-30T09:35:18.616Z,96762.00
2018-07-30T09:37:46.542Z,96756.00
2018-07-30T09:40:14.448Z,96749.00
2018-07-30T09:42:42.522Z,96753.00
2018-07-30T09:45:10.463Z,96749.00
2018-07-30T09:47:38.401Z,96749.00
2018-07-30T09:50:06.383Z,96751.00
2018-07-30T09:52:34.345Z,96750.00
2018-07-30T09:55:02.279Z,96757.00
2018-07-30T09:57:30.201Z,96753.00
2018-07-30T09:59:58.145Z,96754.00
2018-07-30T10:02:26.063Z,96750.00
2018-07-30T10:04:54.069Z,96747.00
2018-07-30T10:07:22.081Z,96755.00
2018-07-30T10:09:50.274Z,96749.00
2018-07-30T10:12:18.183Z,96732.00
2018-07-30T10:14:46.101Z,96735.00
2018-07-30T10:17:14.068Z,96734.00
2018-07-30T10:19:42.007Z,96747.00
2018-07-30T10:22:09.970Z,96746.00
2018-07-30T10:24:37.917Z,96739.00
2018-07-30T10:27:05.888Z,96745.00
2018-07-30T10:29:33.807Z,96739.00
2018-07-30T10:32:01.736Z,96742.00
2018-07-30T10:34:29.737Z,96741.00
2018-07-30T10:36:57.650Z,96742.00
2018-07-30T10:39:25.608Z,96739.00
2018-07-30T10:41:53.579Z,96735.00
2018-07-30T10:44:21.581Z,96735.00
2018-07-30T10:46:49.597Z,96739.00
2018-07-30T10:49:17.516Z,96725.00
2018-07-30T10:51:45.496Z,96728.00
2018-07-30T10:54:13.426Z,96721.00
2018-07-30T10:56:41.385Z,96724.00
2018-07-30T10:59:09.296Z,96728.00
2018-07-30T11:01:37.265Z,96725.00
2018-07-30T11:04:05.191Z,96724.00
2018-07-30T11:06:33.177Z,96720.00
2018-07-30T11:09:01.097Z,96720.00
2018-07-30T11:11:29.038Z,96713.00
2018-07-30T11:13:56.983Z,96714.00
2018-07-30T11:16:24.889Z,96711.00
2018-07-30T11:18:52.843Z,96712.00
2018-07-30T11:21:20.760Z,96707.00
2018-07-30T11:23:48.739Z,96705.00
2018-07-30T11:26:16.722Z,96702.00
2018-07-30T11:28:44.634Z,96700.00
2018-07-30T11:31:12.634Z,96693.00
2018-07-30T11:33:40.664Z,96696.00
2018-07-30T11:36:08.506Z,96686.00
2018-07-30T11:38:36.428Z,96678.00
2018-07-30T11:41:04.433Z,96677.00
2018-07-30T11:43:32.397Z,96674.00
2018-07-30T11:46:00.326Z,96673.00
2018-07-30T11:48:28.313Z,96672.00
2018-07-30T11:50:56.239Z,96671.00
2018-07-30T11:53:24.275Z,96665.00
2018-07-30T11:55:52.197Z,96657.00
2018-07-30T11:58:20.155Z,96653.00
2018-07-30T12:00:48.137Z,96661.00
2018-07-30T12:03:16.044Z,96659.00
2018-07-30T12:05:44.012Z,96654.00
2018-07-30T12:08:11.934Z,96660.00
2018-07-30T12:10:39.940Z,96656.00
2018-07-30T12:13:07.888Z,96660.00
2018-07-30T12:15:35.801Z,96655.00
2018-07-30T12:18:03.764Z,96658.00
2018-07-30T12:20:31.666Z,96653.00
2018-07-30T12:22:59.611Z,96653.00
2018-07-30T12:25:27.563Z,96648.00
2018-07-30T12:27:55.504Z,96644.00
2018-07-30T12:30:23.543Z,96643.00
2018-07-30T12:32:51.423Z,96637.00
2018-07-30T12:35:19.340Z,96633.00
2018-07-30T12:37:47.287Z,96628.00
2018-07-30T12:40:15.330Z,96631.00
2018-07-30T12:42:43.255Z,96624.00
2018-07-30T12:45:11.183Z,96625.00
2018-07-30T12:47:39.119Z,96624.00
2018-07-30T12:50:07.092Z,96611.00
2018-07-30T12:52:35.029Z,96608.00
2018-07-30T12:55:02.981Z,96609.00
2018-07-30T12:57:30.907Z,96600.00
2018-07-30T12:59:58.879Z,96604.00
2018-07-30T13:02:26.789Z,96602.00
2018-07-30T13:04:54.815Z,96601.00
2018-07-30T13:07:22.728Z,96596.00
2018-07-30T13:09:50.701Z,96591.00
2018-07-30T13:12:18.677Z,96593.00
2018-07-30T13:14:46.626Z,96587.00
2018-07-30T13:17:14.575Z,96585.00
2018-07-30T13:19:42.477Z,96584.00
2018-07-30T13:22:10.429Z,96574.00
2018-07-30T13:24:38.354Z,96579.00
2018-07-30T13:27:06.288Z,96579.00
2018-07-30T13:29:34.254Z,96569.00
2018-07-30T13:32:02.164Z,96574.00
2018-07-30T13:34:30.338Z,96570.00
2018-07-30T13:36:58.224Z,96571.00
2018-07-30T13:39:26.199Z,96566.00
2018-07-30T13:41:54.132Z,96576.00
2018-07-30T13:44:22.048Z,96569.00
2018-07-30T13:46:50.030Z,96571.00
2018-07-30T13:49:17.974Z,96567.00
2018-07-30T13:51:45.957Z,96570.00
2018-07-30T13:54:13.946Z,96566.00
2018-07-30T13:56:41.879Z,96573.00
2018-07-30T13:59:09.827Z,96567.00
2018-07-30T14:01:37.777Z,96565.00
2018-07-30T14:04:05.766Z,96566.00
2018-07-30T14:06:33.859Z,96557.00
2018-07-30T14:09:01.660Z,96566.00
2018-07-30T14:11:29.585Z,96555.00
2018-07-30T14:13:57.540Z,96552.00
2018-07-30T14:16:25.461Z,96560.00
2018-07-30T14:18:53.362Z,96555.00
2018-07-30T14:21:21.304Z,96556.00
2018-07-30T14:23:49.244Z,96547.00
2018-07-30T14:26:17.183Z,96544.00
2018-07-30T14:28:45.113Z,96369.00
2018-07-30T14:31:13.110Z,96263.00
2018-07-30T14:33:41.020Z,96263.00
2018-07-30T14:36:09.067Z,96259.00
2018-07-30T14:38:37.038Z,96260.00
2018-07-30T14:41:04.967Z,96252.00
2018-07-30T14:43:32.938Z,96248.00
2018-07-30T14:46:00.893Z,96241.00
2018-07-30T14:48:28.970Z,96235.00
2018-07-30T14:50:56.951Z,96229.00
2018-07-30T14:53:24.898Z,96220.00
2018-07-30T14:55:52.917Z,96216.00
2018-07-30T14:58:20.867Z,96206.00
2018-07-30T15:00:48.782Z,96216.00
2018-07-30T15:03:16.744Z,96203.00
2018-07-30T15:05:44.686Z,96199.00
2018-07-30T15:08:12.721Z,96200.00
2018-07-30T15:10:40.659Z,96204.00
2018-07-30T15:13:08.623Z,96195.00
2018-07-30T15:15:36.564Z,96179.00
2018-07-30T15:18:04.616Z,96196.00
2018-07-30T15:20:32.569Z,96193.00
2018-07-30T15:23:00.494Z,96190.00
2018-07-30T15:25:28.537Z,96191.00
2018-07-30T15:27:56.583Z,96187.00
2018-07-30T15:30:24.667Z,96183.00
2018-07-30T15:32:52.601Z,96185.00
2018-07-30T15:35:20.560Z,96180.00
2018-07-30T15:37:48.605Z,96351.00
2018-07-30T15:40:16.588Z,96527.00
2018-07-30T15:42:44.574Z,96525.00
2018-07-30T15:45:12.531Z,96534.00
2018-07-30T15:47:40.504Z,96528.00
2018-07-30T15:50:08.477Z,96529.00
2018-07-30T15:52:36.444Z,96529.00
2018-07-30T15:55:04.433Z,96528.00
2018-07-30T15:57:33.314Z,96530.00
2018-07-30T16:02:29.703Z,96534.00
2018-07-30T16:04:57.715Z,96536.00
2018-07-30T16:07:25.705Z,96540.00
2018-07-30T16:09:54.031Z,96529.00
2018-07-30T16:12:22.147Z,96535.00
2018-07-30T16:14:50.282Z,96534.00
2018-07-30T16:17:18.554Z,96528.00
2018-07-30T16:19:46.661Z,96525.00
2018-07-30T16:22:14.593Z,96527.00
2018-07-30T16:24:42.566Z,96527.00
2018-07-30T16:27:10.567Z,96523.00
2018-07-30T16:29:38.657Z,96523.00
2018-07-30T16:32:06.584Z,96521.00
2018-07-30T16:34:34.608Z,96533.00
2018-07-30T16:37:02.536Z,96529.00
2018-07-30T16:39:30.592Z,96532.00
2018-07-30T16:41:58.571Z,96531.00
2018-07-30T16:44:26.533Z,96535.00
2018-07-30T16:46:54.535Z,96529.00
2018-07-30T16:49:22.475Z,96530.00
2018-07-30T16:51:50.530Z,96534.00
2018-07-30T16:54:18.512Z,96534.00
2018-07-30T16:56:46.452Z,96538.00
2018-07-30T16:59:14.513Z,96539.00
2018-07-30T17:01:42.449Z,96529.00
2018-07-30T17:04:10.398Z,96537.00
2018-07-30T17:06:38.320Z,96531.00
2018-07-30T17:09:09.348Z,96530.00
2018-07-30T17:11:37.481Z,96539.00
2018-07-30T17:14:05.407Z,96541.00
2018-07-30T17:16:33.411Z,96540.00
2018-07-30T17:19:01.676Z,96548.00
2018-07-30T17:21:29.655Z,96559.00
2018-07-30T17:23:57.647Z,96574.00
2018-07-30T17:26:25.602Z,96578.00
2018-07-30T17:28:53.551Z,96581.00
2018-07-30T17:31:21.635Z,96580.00
2018-07-30T17:33:49.624Z,96575.00
2018-07-30T17:36:17.534Z,96582.00
2018-07-30T17:38:45.508Z,96558.00
2018-07-30T17:41:13.434Z,96559.00
2018-07-30T17:43:41.429Z,96566.00
2018-07-30T17:46:09.389Z,96565.00
2018-07-30T17:48:37.332Z,96552.00
2018-07-30T17:51:05.340Z,96557.00
2018-07-30T17:53:33.263Z,96556.00
2018-07-30T17:56:01.233Z,96563.00
2018-07-30T17:58:29.269Z,96568.00
2018-07-30T18:00:57.496Z,96568.00
2018-07-30T18:03:25.440Z,96567.00
2018-07-30T18:05:53.385Z,96571.00
2018-07-30T18:08:21.409Z,96581.00
2018-07-30T18:10:49.385Z,96601.00
2018-07-30T18:13:18.022Z,96608.00
2018-07-30T18:15:45.919Z,96596.00
2018-07-30T18:18:13.908Z,96611.00
2018-07-30T18:20:41.908Z,96630.00
2018-07-30T18:23:09.970Z,96638.00
2018-07-30T18:25:37.920Z,96638.00
2018-07-30T18:28:08.719Z,96644.00
2018-07-30T18:30:36.758Z,96647.00
2018-07-30T18:33:04.714Z,96647.00
2018-07-30T18:35:32.688Z,96649.00
2018-07-30T18:38:00.601Z,96649.00
2018-07-30T18:40:28.646Z,96649.00
2018-07-30T18:42:57.312Z,96647.00
2018-07-30T18:45:25.723Z,96647.00
2018-07-30T18:47:54.119Z,96653.00
2018-07-30T18:50:22.072Z,96652.00
2018-07-30T18:52:54.615Z,96651.00
2018-07-30T18:55:23.223Z,96657.00
2018-07-30T18:57:51.756Z,96657.00
2018-07-30T19:00:43.784Z,96652.00
2018-07-30T19:03:12.362Z,96656.00
2018-07-30T19:05:41.601Z,96653.00
2018-07-30T19:08:13.189Z,96647.00
2018-07-30T19:10:41.580Z,96654.00
2018-07-30T19:13:10.235Z,96656.00
2018-07-30T19:15:38.933Z,96657.00
2018-07-30T19:18:11.079Z,96650.00
2018-07-30T19:20:39.887Z,96651.00
2018-07-30T19:23:13.233Z,96656.00
2018-07-30T19:25:45.185Z,96663.00
2018-07-30T19:28:14.223Z,96665.00
2018-07-30T19:30:43.120Z,96666.00
2018-07-30T19:33:11.931Z,96672.00
2018-07-30T19:35:40.509Z,96672.00
2018-07-30T19:38:16.146Z,96674.00
2018-07-30T19:40:44.679Z,96685.00
2018-07-30T19:43:13.257Z,96685.00
2018-07-30T19:45:45.016Z,96685.00
2018-07-30T19:48:13.840Z,96686.00
2018-07-30T19:50:42.900Z,96686.00
2018-07-30T19:53:16.096Z,96692.00
2018-07-30T19:55:51.950Z,96686.00
2018-07-30T19:58:21.202Z,96687.00
2018-07-30T20:00:49.855Z,96687.00
2018-07-30T20:03:18.250Z,96689.00
2018-07-30T20:05:50.639Z,96694.00
2018-07-30T20:08:23.502Z,96695.00
2018-07-30T20:10:52.154Z,96691.00
2018-07-30T20:13:30.100Z,96696.00
2018-07-30T20:15:58.362Z,96700.00
2018-07-30T20:18:27.137Z,96692.00
2018-07-30T20:20:55.169Z,96691.00
2018-07-30T20:23:23.453Z,96693.00
2018-07-30T20:25:52.039Z,96696.00
2018-07-30T20:28:23.477Z,96699.00
2018-07-30T20:31:02.121Z,96701.00
2018-07-30T20:33:30.837Z,96699.00
2018-07-30T20:35:59.139Z,96706.00
2018-07-30T20:38:27.380Z,96698.00
2018-07-30T20:40:55.602Z,96699.00
2018-07-30T20:43:23.812Z,96696.00
2018-07-30T20:45:52.111Z,96694.00
2018-07-30T20:48:20.624Z,96699.00
2018-07-30T20:50:48.680Z,96697.00
2018-07-30T20:53:17.747Z,96696.00
2018-07-30T20:55:45.724Z,96702.00
2018-07-30T20:58:13.654Z,96702.00
2018-07-30T21:00:41.751Z,96703.00
2018-07-30T21:03:09.743Z,96701.00
2018-07-30T21:05:44.111Z,96703.00
2018-07-30T21:08:13.675Z,96716.00
2018-07-30T21:10:42.732Z,96713.00
2018-07-30T21:13:10.668Z,96714.00
2018-07-30T21:15:38.601Z,96709.00
2018-07-30T21:18:06.602Z,96715.00
2018-07-30T21:20:36.594Z,96716.00
2018-07-30T21:23:04.599Z,96714.00
2018-07-30T21:25:32.504Z,96712.00
2018-07-30T21:28:00.460Z,96708.00
2018-07-30T21:30:28.496Z,96715.00
2018-07-30T21:32:56.567Z,96715.00
2018-07-30T21:35:24.479Z,96717.00
2018-07-30T21:37:52.534Z,96727.00
2018-07-30T21:40:20.480Z,96726.00
2018-07-30T21:42:48.419Z,96726.00
2018-07-30T21:45:16.708Z,96734.00
2018-07-30T21:47:44.807Z,96734.00
2018-07-30T21:50:12.795Z,96729.00
2018-07-30T21:52:40.725Z,96729.00
2018-07-30T21:55:08.722Z,96717.00
2018-07-30T21:57:36.781Z,96725.00
2018-07-30T22:00:08.853Z,96721.00
2018-07-30T22:02:36.841Z,96718.00
2018-07-30T22:05:11.690Z,96713.00
2018-07-30T22:07:39.656Z,96721.00
2018-07-30T22:10:07.627Z,96723.00
2018-07-30T22:12:35.629Z,96725.00
2018-07-30T22:15:03.573Z,96716.00
2018-07-30T22:17:31.517Z,96719.00
2018-07-30T22:19:59.727Z,96718.00
2018-07-30T22:22:27.655Z,96716.00
2018-07-30T22:24:56.059Z,96712.00
2018-07-30T22:27:24.032Z,96707.00
2018-07-30T22:29:52.030Z,96712.00
2018-07-30T22:32:20.011Z,96708.00
2018-07-30T22:34:47.971Z,96710.00
2018-07-30T22:37:15.928Z,96705.00
2018-07-30T22:39:43.860Z,96704.00
2018-07-30T22:42:11.846Z,96710.00
2018-07-30T22:44:41.201Z,96708.00
2018-07-30T22:47:10.421Z,96708.00
2018-07-30T22:49:38.383Z,96706.00
2018-07-30T22:52:06.438Z,96710.00
2018-07-30T22:54:34.426Z,96702.00
2018-07-30T22:57:02.378Z,96704.00
2018-07-30T22:59:30.318Z,96702.00
2018-07-30T23:01:58.299Z,96697.00
2018-07-30T23:04:26.248Z,96701.00
2018-07-30T23:06:54.217Z,96704.00
2018-07-30T23:09:22.179Z,96707.00
2018-07-30T23:11:50.192Z,96704.00
2018-07-30T23:14:18.171Z,96705.00
2018-07-30T23:16:46.160Z,96701.00
2018-07-30T23:19:14.088Z,96700.00
2018-07-30T23:21:42.067Z,96705.00
2018-07-30T23:24:10.012Z,96696.00
2018-07-30T23:26:37.979Z,96702.00
2018-07-30T23:29:05.929Z,96698.00
2018-07-30T23:31:33.870Z,96693.00
2018-07-30T23:34:01.813Z,96692.00
2018-07-30T23:36:29.807Z,96694.00
2018-07-30T23:38:57.764Z,96692.00
2018-07-30T23:41:25.691Z,96701.00
2018-07-30T23:43:53.652Z,96701.00
2018-07-30T23:46:21.596Z,96694.00
2018-07-30T23:48:49.631Z,96698.00
2018-07-30T23:51:17.580Z,96696.00
2018-07-30T23:53:45.570Z,96696.00
2018-07-30T23:56:13.532Z,96689.00
2018-07-30T23:58:41.468Z,96689.00
